createdAt,value
2018-06-21T00:01:08.825Z,5.63
2018-06-21T00:03:37.274Z,5.57
2018-06-21T00:06:05.688Z,7.13
2018-06-21T00:08:34.156Z,7.70
2018-06-21T00:11:02.528Z,5.87
2018-06-21T00:13:31.021Z,11.00
2018-06-21T00:15:59.428Z,8.73
2018-06-21T00:18:27.869Z,6.70
2018-06-21T00:20:56.392Z,8.43
2018-06-21T00:23:24.889Z,6.83
2018-06-21T00:25:53.559Z,7.07
2018-06-21T00:28:22.174Z,7.00
2018-06-21T00:30:50.699Z,6.40
2018-06-21T00:33:19.120Z,9.40
2018-06-21T00:35:47.577Z,6.87
2018-06-21T00:38:16.037Z,6.40
2018-06-21T00:40:44.458Z,8.67
2018-06-21T00:43:12.971Z,11.57
2018-06-21T00:45:41.465Z,8.23
2018-06-21T00:48:09.918Z,7.97
2018-06-21T00:50:38.356Z,6.50
2018-06-21T00:53:06.697Z,7.30
2018-06-21T00:55:46.457Z,7.10
2018-06-21T00:58:14.911Z,7.33
2018-06-21T01:00:43.259Z,8.87
2018-06-21T01:03:11.701Z,7.00
2018-06-21T01:05:40.170Z,7.07
2018-06-21T01:08:08.640Z,7.23
2018-06-21T01:10:37.063Z,7.47
2018-06-21T01:13:05.687Z,8.47
2018-06-21T01:15:34.092Z,7.63
2018-06-21T01:18:02.467Z,7.20
2018-06-21T01:20:30.884Z,9.93
2018-06-21T01:22:59.273Z,7.73
2018-06-21T01:25:27.816Z,7.80
2018-06-21T01:27:56.291Z,8.50
2018-06-21T01:30:24.629Z,8.30
2018-06-21T01:32:53.175Z,9.17
2018-06-21T01:35:21.651Z,7.33
2018-06-21T01:37:49.931Z,8.03
2018-06-21T01:40:18.266Z,7.47
2018-06-21T01:42:46.660Z,7.70
2018-06-21T01:45:15.075Z,7.77
2018-06-21T01:47:43.392Z,8.30
2018-06-21T01:50:11.800Z,7.90
2018-06-21T01:52:40.155Z,8.13
2018-06-21T01:55:08.575Z,8.17
2018-06-21T01:57:36.919Z,8.50
2018-06-21T02:00:05.395Z,8.00
2018-06-21T02:02:33.794Z,8.17
2018-06-21T02:05:02.178Z,8.17
2018-06-21T02:07:30.487Z,7.47
2018-06-21T02:09:58.922Z,7.70
2018-06-21T02:12:27.243Z,9.23
2018-06-21T02:14:55.633Z,8.13
2018-06-21T02:17:24.006Z,8.03
2018-06-21T02:19:52.367Z,11.43
2018-06-21T02:22:20.673Z,8.37
2018-06-21T02:24:49.761Z,8.83
2018-06-21T02:27:18.112Z,8.07
2018-06-21T02:29:46.558Z,11.30
2018-06-21T02:32:14.925Z,10.03
2018-06-21T02:34:43.228Z,8.23
2018-06-21T02:37:11.694Z,9.13
2018-06-21T02:39:40.077Z,8.53
2018-06-21T02:42:08.428Z,8.80
2018-06-21T02:44:36.732Z,10.63
2018-06-21T02:47:05.307Z,10.13
2018-06-21T02:49:34.441Z,8.50
2018-06-21T02:52:02.862Z,7.87
2018-06-21T02:54:31.318Z,9.13
2018-06-21T02:56:59.688Z,8.07
2018-06-21T02:59:28.006Z,8.13
2018-06-21T03:01:57.040Z,8.67
2018-06-21T03:04:25.424Z,8.30
2018-06-21T03:06:53.838Z,10.73
2018-06-21T03:09:22.254Z,9.60
2018-06-21T03:11:50.587Z,12.33
2018-06-21T03:14:18.940Z,8.53
2018-06-21T03:16:47.275Z,10.43
2018-06-21T03:19:15.694Z,8.60
2018-06-21T03:21:44.149Z,9.30
2018-06-21T03:24:12.522Z,8.60
2018-06-21T03:26:40.833Z,8.50
2018-06-21T03:29:09.173Z,9.73
2018-06-21T03:31:37.947Z,9.43
2018-06-21T03:34:06.510Z,8.27
2018-06-21T03:36:34.994Z,8.67
2018-06-21T03:39:03.659Z,9.23
2018-06-21T03:41:31.998Z,9.13
2018-06-21T03:44:00.334Z,8.03
2018-06-21T03:46:28.680Z,9.27
2018-06-21T03:48:57.032Z,8.23
2018-06-21T03:51:25.412Z,10.03
2018-06-21T03:53:53.862Z,9.40
2018-06-21T03:56:22.184Z,9.23
2018-06-21T03:58:50.554Z,10.30
2018-06-21T04:01:18.946Z,11.30
2018-06-21T04:03:47.257Z,9.37
2018-06-21T04:06:15.659Z,10.33
2018-06-21T04:08:44.066Z,9.40
2018-06-21T04:11:12.501Z,9.83
2018-06-21T04:13:41.539Z,9.50
2018-06-21T04:16:10.458Z,10.77
2018-06-21T04:18:38.803Z,9.40
2018-06-21T04:21:09.183Z,9.30
2018-06-21T04:23:37.591Z,10.70
2018-06-21T04:26:06.779Z,9.37
2018-06-21T04:28:35.723Z,10.37
2018-06-21T04:31:06.218Z,8.73
2018-06-21T04:33:35.690Z,11.57
2018-06-21T04:36:04.149Z,7.97
2018-06-21T04:38:32.452Z,8.00
2018-06-21T04:41:00.742Z,9.73
2018-06-21T04:43:29.149Z,8.53
2018-06-21T04:45:57.536Z,9.03
2018-06-21T04:48:25.854Z,7.80
2018-06-21T04:50:54.318Z,9.93
2018-06-21T04:53:22.607Z,7.27
2018-06-21T04:55:50.993Z,7.53
2018-06-21T04:58:19.329Z,8.70
2018-06-21T05:00:47.708Z,8.33
2018-06-21T05:03:16.325Z,10.17
2018-06-21T05:05:45.463Z,8.13
2018-06-21T05:08:13.857Z,7.40
2018-06-21T05:10:42.406Z,8.13
2018-06-21T05:13:10.929Z,9.97
2018-06-21T05:15:39.355Z,8.53
2018-06-21T05:18:07.778Z,8.83
2018-06-21T05:20:37.420Z,7.30
2018-06-21T05:23:05.977Z,10.50
2018-06-21T05:25:34.387Z,9.67
2018-06-21T05:28:02.704Z,11.57
2018-06-21T05:30:31.157Z,7.77
2018-06-21T05:32:59.718Z,8.63
2018-06-21T05:35:28.098Z,14.20
2018-06-21T05:37:57.238Z,9.50
2018-06-21T05:40:33.708Z,8.77
2018-06-21T05:43:02.752Z,7.10
2018-06-21T05:45:31.176Z,7.40
2018-06-21T05:48:02.080Z,8.40
2018-06-21T05:50:31.634Z,7.47
2018-06-21T05:53:00.429Z,6.40
2018-06-21T05:55:29.655Z,9.13
2018-06-21T05:57:58.068Z,11.07
2018-06-21T06:00:26.393Z,9.43
2018-06-21T06:02:54.757Z,8.50
2018-06-21T06:05:22.988Z,9.43
2018-06-21T06:07:51.651Z,9.27
2018-06-21T06:10:20.246Z,7.30
2018-06-21T06:12:48.774Z,11.87
2018-06-21T06:15:17.014Z,9.38
2018-06-21T06:17:45.466Z,8.40
2018-06-21T06:20:13.857Z,7.80
2018-06-21T06:22:42.269Z,9.78
2018-06-21T06:25:10.824Z,16.93
2018-06-21T06:27:39.133Z,9.55
2018-06-21T06:30:07.948Z,19.83
2018-06-21T06:32:36.397Z,17.37
2018-06-21T06:35:04.686Z,30.85
2018-06-21T06:37:33.046Z,26.20
2018-06-21T06:40:01.346Z,8.53
2018-06-21T06:42:29.764Z,13.60
2018-06-21T06:44:58.065Z,9.05
2018-06-21T06:47:26.827Z,8.35
2018-06-21T06:49:55.161Z,8.15
2018-06-21T06:52:23.699Z,10.72
2018-06-21T06:54:52.140Z,8.13
2018-06-21T06:57:20.408Z,7.15
2018-06-21T06:59:48.704Z,5.45
2018-06-21T07:02:17.214Z,9.00
2018-06-21T07:04:45.597Z,5.85
2018-06-21T07:07:13.965Z,9.43
2018-06-21T07:09:42.454Z,6.03
2018-06-21T07:12:10.736Z,8.58
2018-06-21T07:14:39.052Z,6.03
2018-06-21T07:17:07.520Z,4.55
2018-06-21T07:19:35.809Z,7.10
2018-06-21T07:22:04.209Z,3.92
2018-06-21T07:24:32.556Z,3.15
2018-06-21T07:27:00.978Z,4.87
2018-06-21T07:29:29.265Z,4.33
2018-06-21T07:31:57.666Z,3.20
2018-06-21T07:34:25.986Z,5.58
2018-06-21T07:36:54.390Z,3.47
2018-06-21T07:39:22.724Z,2.25
2018-06-21T07:41:51.184Z,5.72
2018-06-21T07:44:19.449Z,2.75
2018-06-21T07:46:47.797Z,5.72
2018-06-21T07:49:16.182Z,3.58
2018-06-21T07:51:44.589Z,2.98
2018-06-21T07:54:12.931Z,4.25
2018-06-21T07:56:41.549Z,2.80
2018-06-21T07:59:10.124Z,4.00
2018-06-21T08:01:38.497Z,3.87
2018-06-21T08:04:06.925Z,3.05
2018-06-21T08:06:35.312Z,4.15
2018-06-21T08:09:04.561Z,3.00
2018-06-21T08:11:32.857Z,3.85
2018-06-21T08:14:01.176Z,3.55
2018-06-21T08:16:29.548Z,3.15
2018-06-21T08:18:57.945Z,2.70
2018-06-21T08:21:26.330Z,4.55
2018-06-21T08:23:54.606Z,4.10
2018-06-21T08:26:22.933Z,3.92
2018-06-21T08:28:51.342Z,3.05
2018-06-21T08:31:19.657Z,5.62
2018-06-21T08:33:48.587Z,6.00
2018-06-21T08:36:17.163Z,5.08
2018-06-21T08:38:45.459Z,6.28
2018-06-21T08:41:13.765Z,5.40
2018-06-21T08:43:42.152Z,6.50
2018-06-21T08:46:10.583Z,7.53
2018-06-21T08:48:38.895Z,6.28
2018-06-21T08:51:07.393Z,8.60
2018-06-21T08:53:35.767Z,9.05
2018-06-21T08:56:04.229Z,8.98
2018-06-21T08:58:32.618Z,8.73
2018-06-21T09:01:00.969Z,7.53
2018-06-21T09:03:29.435Z,7.30
2018-06-21T09:05:57.776Z,4.05
2018-06-21T09:08:26.118Z,7.03
2018-06-21T09:10:54.417Z,9.48
2018-06-21T09:13:22.812Z,9.18
2018-06-21T09:15:51.058Z,5.75
2018-06-21T09:18:19.389Z,5.90
2018-06-21T09:20:47.877Z,6.60
2018-06-21T09:23:16.169Z,5.35
2018-06-21T09:25:44.572Z,6.47
2018-06-21T09:28:12.820Z,6.37
2018-06-21T09:30:41.127Z,5.90
2018-06-21T09:33:09.604Z,6.62
2018-06-21T09:35:38.048Z,6.90
2018-06-21T09:38:14.778Z,8.20
2018-06-21T09:40:48.559Z,8.23
2018-06-21T09:43:22.225Z,9.10
2018-06-21T09:45:55.920Z,7.08
2018-06-21T09:48:31.720Z,5.42
2018-06-21T09:51:01.069Z,6.72
2018-06-21T09:53:29.948Z,11.18
2018-06-21T09:55:59.557Z,7.80
2018-06-21T09:58:27.968Z,6.75
2018-06-21T10:01:02.929Z,4.70
2018-06-21T10:03:31.802Z,4.53
2018-06-21T10:06:00.076Z,8.15
2018-06-21T10:08:28.617Z,8.73
2018-06-21T10:10:56.977Z,5.55
2018-06-21T10:13:25.283Z,5.28
2018-06-21T10:15:54.082Z,7.55
2018-06-21T10:18:22.352Z,7.58
2018-06-21T10:20:50.927Z,6.60
2018-06-21T10:23:19.257Z,7.40
2018-06-21T10:25:47.645Z,6.37
2018-06-21T10:28:15.971Z,5.55
2018-06-21T10:30:44.246Z,4.67
2018-06-21T10:33:12.671Z,7.08
2018-06-21T10:35:41.036Z,6.00
2018-06-21T10:38:09.343Z,4.10
2018-06-21T10:40:37.636Z,8.15
2018-06-21T10:43:06.251Z,5.25
2018-06-21T10:45:34.823Z,7.83
2018-06-21T10:48:04.253Z,6.33
2018-06-21T10:50:32.582Z,4.80
2018-06-21T10:53:00.932Z,5.15
2018-06-21T10:55:29.357Z,4.62
2018-06-21T10:57:57.673Z,5.28
2018-06-21T11:00:26.053Z,6.60
2018-06-21T11:02:54.409Z,5.83
2018-06-21T11:05:22.742Z,4.72
2018-06-21T11:07:51.197Z,6.58
2018-06-21T11:10:20.056Z,5.10
2018-06-21T11:12:48.411Z,5.85
2018-06-21T11:15:16.690Z,8.43
2018-06-21T11:17:45.044Z,6.30
2018-06-21T11:20:13.350Z,8.18
2018-06-21T11:22:41.850Z,5.40
2018-06-21T11:25:10.139Z,8.63
2018-06-21T11:27:38.472Z,7.83
2018-06-21T11:30:07.477Z,7.37
2018-06-21T11:32:35.816Z,5.08
2018-06-21T11:35:04.291Z,5.40
2018-06-21T11:37:32.525Z,5.80
2018-06-21T11:40:00.939Z,8.10
2018-06-21T11:42:29.298Z,6.10
2018-06-21T11:44:57.623Z,6.37
2018-06-21T11:47:25.974Z,7.12
2018-06-21T11:49:55.660Z,5.37
2018-06-21T11:52:23.975Z,5.15
2018-06-21T11:54:52.289Z,7.78
2018-06-21T11:57:20.742Z,4.42
2018-06-21T11:59:49.275Z,4.55
2018-06-21T12:02:17.553Z,4.70
2018-06-21T12:04:45.910Z,3.22
2018-06-21T12:07:15.449Z,4.37
2018-06-21T12:09:43.780Z,5.45
2018-06-21T12:12:12.308Z,5.22
2018-06-21T12:14:40.669Z,3.98
2018-06-21T12:17:08.957Z,6.33
2018-06-21T12:19:37.280Z,7.50
2018-06-21T12:22:05.974Z,5.75
2018-06-21T12:24:34.244Z,4.22
2018-06-21T12:27:02.625Z,5.70
2018-06-21T12:29:30.972Z,5.83
2018-06-21T12:31:59.964Z,7.53
2018-06-21T12:34:28.317Z,5.95
2018-06-21T12:36:56.873Z,5.20
2018-06-21T12:39:25.199Z,3.90
2018-06-21T12:41:53.575Z,4.90
2018-06-21T12:44:22.309Z,5.78
2018-06-21T12:46:50.621Z,5.30
2018-06-21T12:49:18.984Z,4.70
2018-06-21T12:51:47.271Z,8.45
2018-06-21T12:54:15.748Z,4.87
2018-06-21T12:56:44.024Z,3.42
2018-06-21T12:59:12.295Z,6.08
2018-06-21T13:01:40.720Z,5.62
2018-06-21T13:04:09.201Z,8.93
2018-06-21T13:06:37.452Z,6.12
2018-06-21T13:09:17.224Z,5.22
2018-06-21T13:12:58.984Z,4.78
2018-06-21T13:15:27.522Z,4.80
2018-06-21T13:17:55.970Z,3.65
2018-06-21T13:20:24.474Z,3.47
2018-06-21T13:22:52.746Z,2.50
2018-06-21T13:25:21.039Z,6.25
2018-06-21T13:27:49.285Z,4.00
2018-06-21T13:30:17.533Z,4.22
2018-06-21T13:32:45.761Z,5.30
2018-06-21T13:35:14.295Z,4.33
2018-06-21T13:37:42.732Z,3.90
2018-06-21T13:40:11.050Z,3.95
2018-06-21T13:42:39.319Z,3.85
2018-06-21T13:45:07.759Z,3.37
2018-06-21T13:47:36.518Z,6.25
2018-06-21T13:50:05.826Z,6.22
2018-06-21T13:52:34.354Z,6.33
2018-06-21T13:55:02.865Z,6.47
2018-06-21T13:57:31.228Z,5.47
2018-06-21T13:59:59.502Z,3.90
2018-06-21T14:02:27.828Z,5.05
2018-06-21T14:04:56.245Z,6.30
2018-06-21T14:13:20.676Z,7.92
2018-06-21T14:15:49.746Z,6.03
2018-06-21T14:18:18.440Z,4.00
2018-06-21T14:20:47.794Z,4.35
2018-06-21T14:23:16.812Z,4.40
2018-06-21T14:25:45.254Z,6.35
2018-06-21T14:28:13.506Z,9.28
2018-06-21T14:30:42.001Z,4.33
2018-06-21T14:33:10.352Z,6.62
2018-06-21T14:35:39.257Z,5.85
2018-06-21T14:38:07.965Z,5.37
2018-06-21T14:40:36.267Z,6.58
2018-06-21T14:43:04.621Z,3.30
2018-06-21T14:45:33.068Z,4.17
2018-06-21T14:48:01.866Z,2.37
2018-06-21T14:50:30.240Z,5.95
2018-06-21T14:52:58.519Z,2.85
2018-06-21T14:55:27.277Z,1.95
2018-06-21T14:57:55.613Z,3.35
2018-06-21T15:00:23.912Z,3.15
2018-06-21T15:02:52.181Z,6.90
2018-06-21T15:05:20.598Z,2.17
2018-06-21T15:07:49.787Z,7.33
2018-06-21T15:10:18.151Z,3.65
2018-06-21T15:12:46.447Z,4.33
2018-06-21T15:15:14.883Z,4.10
2018-06-21T15:17:43.354Z,2.67
2018-06-21T15:20:11.720Z,3.90
2018-06-21T15:22:40.042Z,3.30
2018-06-21T15:25:08.325Z,4.92
2018-06-21T15:27:36.836Z,2.80
2018-06-21T15:30:06.317Z,2.72
2018-06-21T15:32:34.675Z,2.22
2018-06-21T15:35:03.293Z,5.33
2018-06-21T15:37:32.333Z,5.37
2018-06-21T15:40:00.753Z,4.70
2018-06-21T15:42:29.133Z,3.17
2018-06-21T15:44:57.509Z,6.25
2018-06-21T15:47:27.829Z,3.92
2018-06-21T15:49:56.201Z,8.20
2018-06-21T15:52:28.047Z,2.17
2018-06-21T15:54:56.363Z,4.50
2018-06-21T15:57:25.296Z,5.30
2018-06-21T15:59:54.971Z,4.90
2018-06-21T16:02:23.239Z,2.60
2018-06-21T16:04:52.744Z,4.17
2018-06-21T16:07:21.256Z,5.33
2018-06-21T16:09:50.108Z,4.23
2018-06-21T16:12:18.652Z,3.77
2018-06-21T16:14:47.173Z,2.50
2018-06-21T16:17:15.543Z,4.20
2018-06-21T16:19:44.740Z,5.97
2018-06-21T16:22:13.908Z,3.70
2018-06-21T16:24:42.466Z,6.00
2018-06-21T16:27:10.917Z,2.70
2018-06-21T16:29:39.313Z,2.30
2018-06-21T16:32:07.817Z,3.57
2018-06-21T16:34:36.285Z,3.77
2018-06-21T16:37:04.884Z,2.97
2018-06-21T16:39:33.275Z,3.13
2018-06-21T16:42:01.805Z,5.13
2018-06-21T16:44:31.021Z,3.77
2018-06-21T16:46:59.429Z,3.60
2018-06-21T16:49:27.840Z,3.97
2018-06-21T16:51:56.130Z,3.47
2018-06-21T16:54:25.497Z,4.67
2018-06-21T16:56:54.545Z,3.30
2018-06-21T16:59:25.066Z,4.07
2018-06-21T17:01:56.231Z,8.13
2018-06-21T17:04:26.021Z,6.80
2018-06-21T17:06:54.443Z,5.97
2018-06-21T17:09:22.901Z,5.93
2018-06-21T17:11:52.640Z,6.37
2018-06-21T17:14:21.661Z,7.73
2018-06-21T17:16:50.335Z,5.17
2018-06-21T17:19:18.657Z,3.33
2018-06-21T17:21:47.096Z,6.00
2018-06-21T17:24:15.755Z,4.03
2018-06-21T17:26:44.166Z,5.23
2018-06-21T17:29:12.592Z,5.23
2018-06-21T17:31:41.586Z,8.03
2018-06-21T17:34:10.661Z,5.93
2018-06-21T17:36:39.316Z,3.30
2018-06-21T17:39:09.123Z,5.53
2018-06-21T17:41:37.683Z,4.03
2018-06-21T17:44:06.230Z,5.75
2018-06-21T17:46:34.809Z,5.17
2018-06-21T17:49:03.284Z,3.95
2018-06-21T17:51:31.690Z,9.48
2018-06-21T17:54:00.634Z,4.55
2018-06-21T17:56:29.517Z,9.50
2018-06-21T17:58:57.963Z,4.67
2018-06-21T18:01:26.317Z,6.45
2018-06-21T18:03:54.646Z,4.37
2018-06-21T18:06:23.022Z,7.40
2018-06-21T18:08:51.655Z,6.62
2018-06-21T18:11:20.056Z,8.05
2018-06-21T18:13:48.676Z,5.58
2018-06-21T18:16:17.170Z,7.83
2018-06-21T18:18:45.899Z,5.30
2018-06-21T18:21:14.283Z,8.17
2018-06-21T18:23:43.229Z,3.53
2018-06-21T18:26:11.858Z,3.80
2018-06-21T18:28:40.806Z,4.57
2018-06-21T18:31:09.573Z,4.03
2018-06-21T18:33:39.557Z,4.33
2018-06-21T18:36:07.892Z,10.03
2018-06-21T18:38:36.254Z,4.53
2018-06-21T18:41:04.573Z,6.53
2018-06-21T18:43:33.315Z,6.17
2018-06-21T18:46:01.973Z,5.30
2018-06-21T18:48:30.408Z,9.60
2018-06-21T18:50:59.376Z,5.13
2018-06-21T18:53:27.970Z,3.67
2018-06-21T18:56:02.159Z,6.43
2018-06-21T18:58:30.471Z,6.73
2018-06-21T19:00:58.922Z,3.60
2018-06-21T19:03:27.357Z,7.00
2018-06-21T19:05:56.116Z,5.00
2018-06-21T19:08:29.809Z,6.40
2018-06-21T19:11:03.672Z,6.20
2018-06-21T19:13:32.128Z,5.97
2018-06-21T19:16:01.085Z,6.33
2018-06-21T19:18:29.670Z,8.00
2018-06-21T19:20:58.829Z,6.30
2018-06-21T19:23:27.353Z,6.17
2018-06-21T19:25:56.066Z,2.10
2018-06-21T19:28:24.439Z,5.50
2018-06-21T19:30:55.441Z,5.33
2018-06-21T19:33:23.890Z,8.97
2018-06-21T19:35:52.293Z,5.70
2018-06-21T19:38:20.748Z,7.17
2018-06-21T19:40:49.276Z,9.30
2018-06-21T19:43:17.825Z,6.50
2018-06-21T19:45:46.100Z,9.17
2018-06-21T19:48:14.458Z,7.60
2018-06-21T19:50:42.818Z,7.80
2018-06-21T19:53:11.192Z,6.00
2018-06-21T19:55:40.003Z,11.17
2018-06-21T19:58:08.486Z,7.07
2018-06-21T20:00:37.869Z,8.17
2018-06-21T20:03:08.800Z,8.30
2018-06-21T20:05:37.358Z,8.37
2018-06-21T20:08:05.828Z,6.80
2018-06-21T20:10:34.469Z,5.57
2018-06-21T20:13:02.900Z,11.43
2018-06-21T20:15:38.513Z,10.27
2018-06-21T20:18:07.107Z,8.13
2018-06-21T20:20:36.267Z,8.10
2018-06-21T20:23:04.784Z,8.70
2018-06-21T20:25:33.351Z,4.17
2018-06-21T20:28:01.775Z,8.47
2018-06-21T20:30:30.181Z,8.77
2018-06-21T20:32:58.649Z,9.43
2018-06-21T20:35:27.384Z,10.13
2018-06-21T20:37:55.865Z,7.17
2018-06-21T20:40:25.239Z,9.70
2018-06-21T20:42:54.321Z,6.30
2018-06-21T20:45:23.328Z,8.60
2018-06-21T20:47:53.783Z,6.80
2018-06-21T20:50:22.269Z,6.93
2018-06-21T20:52:50.788Z,8.90
2018-06-21T20:55:19.208Z,10.30
2018-06-21T20:57:49.246Z,8.30
2018-06-21T21:00:19.819Z,6.77
2018-06-21T21:02:49.451Z,7.37
2018-06-21T21:05:19.214Z,8.43
2018-06-21T21:07:49.785Z,10.10
2018-06-21T21:10:19.992Z,11.13
2018-06-21T21:12:49.404Z,12.03
2018-06-21T21:15:18.448Z,8.10
2018-06-21T21:17:47.891Z,7.97
2018-06-21T21:20:17.106Z,8.43
2018-06-21T21:22:46.604Z,6.07
2018-06-21T21:25:16.193Z,7.33
2018-06-21T21:27:46.997Z,11.40
2018-06-21T21:30:19.054Z,5.27
2018-06-21T21:33:43.059Z,5.73
2018-06-21T21:36:18.030Z,5.30
2018-06-21T21:38:51.108Z,8.47
2018-06-21T21:41:22.088Z,9.43
2018-06-21T21:43:50.822Z,6.93
2018-06-21T21:46:20.672Z,8.20
2018-06-21T21:48:50.055Z,6.93
2018-06-21T21:51:20.563Z,9.07
2018-06-21T21:53:49.912Z,8.30
2018-06-21T21:56:18.812Z,4.60
2018-06-21T21:58:48.259Z,14.30
2018-06-21T22:01:17.645Z,9.77
2018-06-21T22:03:46.746Z,6.10
2018-06-21T22:06:16.734Z,7.80
2018-06-21T22:08:45.877Z,8.67
2018-06-21T22:11:16.350Z,7.33
2018-06-21T22:13:46.070Z,6.67
2018-06-21T22:16:23.026Z,7.10
2018-06-21T22:18:54.131Z,5.93
2018-06-21T22:21:23.199Z,6.30
2018-06-21T22:23:52.149Z,10.23
2018-06-21T22:26:21.142Z,6.70
2018-06-21T22:28:49.848Z,8.40
2018-06-21T22:31:18.721Z,7.17
2018-06-21T22:33:47.653Z,6.80
2018-06-21T22:36:18.141Z,7.43
2018-06-21T22:38:47.049Z,4.73
2018-06-21T22:41:17.410Z,5.43
2018-06-21T22:43:46.628Z,7.27
2018-06-21T22:46:15.387Z,11.13
2018-06-21T22:48:44.213Z,8.13
2018-06-21T22:51:12.893Z,8.20
2018-06-21T22:53:41.455Z,8.60
2018-06-21T22:56:10.448Z,8.60
2018-06-21T22:58:39.479Z,7.80
2018-06-21T23:01:08.236Z,8.80
2018-06-21T23:03:37.902Z,9.00
2018-06-21T23:06:07.143Z,5.87
2018-06-21T23:08:36.125Z,6.33
2018-06-21T23:11:05.149Z,10.87
2018-06-21T23:13:35.605Z,4.57
2018-06-21T23:16:04.428Z,9.13
2018-06-21T23:18:45.408Z,7.80
2018-06-21T23:21:14.673Z,8.80
2018-06-21T23:23:43.771Z,6.23
2018-06-21T23:26:13.331Z,8.57
2018-06-21T23:28:42.690Z,5.50
2018-06-21T23:31:11.716Z,8.27
2018-06-21T23:33:42.421Z,7.57
2018-06-21T23:36:11.952Z,5.47
2018-06-21T23:38:41.042Z,4.67
2018-06-21T23:41:09.767Z,5.57
2018-06-21T23:43:39.005Z,6.37
2018-06-21T23:46:08.192Z,6.57
2018-06-21T23:48:37.730Z,6.43
2018-06-21T23:51:06.634Z,6.20
2018-06-21T23:53:35.570Z,5.17
2018-06-21T23:56:04.805Z,5.43
2018-06-21T23:58:33.656Z,8.40
